sensor_id;sensor_type;location;lat;lon;timestamp;P1;durP1;ratioP1;P2;durP2;ratioP2
17345;SDS011;8790;53.590;10.002;2022-12-18T00:01:46;16.33;;;10.40;;
17345;SDS011;8790;53.590;10.002;2022-12-18T00:04:20;17.23;;;10.70;;
17345;SDS011;8790;53.590;10.002;2022-12-18T00:06:53;14.90;;;10.17;;
17345;SDS011;8790;53.590;10.002;2022-12-18T00:09:26;18.13;;;11.10;;
17345;SDS011;8790;53.590;10.002;2022-12-18T00:11:58;19.90;;;11.37;;
17345;SDS011;8790;53.590;10.002;2022-12-18T00:14:29;16.83;;;10.63;;
17345;SDS011;8790;53.590;10.002;2022-12-18T00:17:02;17.83;;;11.20;;
17345;SDS011;8790;53.590;10.002;2022-12-18T00:19:33;16.33;;;10.57;;
17345;SDS011;8790;53.590;10.002;2022-12-18T00:22:05;18.63;;;11.63;;
17345;SDS011;8790;53.590;10.002;2022-12-18T00:24:39;16.57;;;11.03;;
17345;SDS011;8790;53.590;10.002;2022-12-18T00:27:10;21.23;;;11.10;;
17345;SDS011;8790;53.590;10.002;2022-12-18T00:29:42;19.60;;;10.93;;
17345;SDS011;8790;53.590;10.002;2022-12-18T00:32:14;17.57;;;10.93;;
17345;SDS011;8790;53.590;10.002;2022-12-18T00:34:46;18.90;;;11.13;;
17345;SDS011;8790;53.590;10.002;2022-12-18T00:37:19;18.63;;;10.83;;
17345;SDS011;8790;53.590;10.002;2022-12-18T00:39:56;18.87;;;11.17;;
17345;SDS011;8790;53.590;10.002;2022-12-18T00:42:27;18.40;;;10.73;;
17345;SDS011;8790;53.590;10.002;2022-12-18T00:45:16;16.57;;;10.30;;
17345;SDS011;8790;53.590;10.002;2022-12-18T00:47:50;16.17;;;10.30;;
17345;SDS011;8790;53.590;10.002;2022-12-18T00:50:22;16.37;;;9.63;;
17345;SDS011;8790;53.590;10.002;2022-12-18T00:52:55;21.17;;;10.20;;
17345;SDS011;8790;53.590;10.002;2022-12-18T00:55:28;18.13;;;9.80;;
17345;SDS011;8790;53.590;10.002;2022-12-18T00:58:00;18.50;;;10.80;;
17345;SDS011;8790;53.590;10.002;2022-12-18T01:00:32;17.47;;;9.80;;
17345;SDS011;8790;53.590;10.002;2022-12-18T01:03:04;16.40;;;9.27;;
17345;SDS011;8790;53.590;10.002;2022-12-18T01:05:38;18.13;;;10.27;;
17345;SDS011;8790;53.590;10.002;2022-12-18T01:08:10;15.40;;;9.87;;
17345;SDS011;8790;53.590;10.002;2022-12-18T01:10:43;16.07;;;9.67;;
17345;SDS011;8790;53.590;10.002;2022-12-18T01:13:15;16.47;;;9.53;;
17345;SDS011;8790;53.590;10.002;2022-12-18T01:15:47;14.40;;;9.57;;
17345;SDS011;8790;53.590;10.002;2022-12-18T01:18:20;13.40;;;9.03;;
17345;SDS011;8790;53.590;10.002;2022-12-18T01:20:54;13.57;;;9.07;;
17345;SDS011;8790;53.590;10.002;2022-12-18T01:23:26;14.03;;;9.17;;
17345;SDS011;8790;53.590;10.002;2022-12-18T01:26:03;14.63;;;9.20;;
17345;SDS011;8790;53.590;10.002;2022-12-18T01:28:35;15.30;;;8.93;;
17345;SDS011;8790;53.590;10.002;2022-12-18T01:31:10;17.60;;;9.57;;
17345;SDS011;8790;53.590;10.002;2022-12-18T01:33:43;16.23;;;9.40;;
17345;SDS011;8790;53.590;10.002;2022-12-18T01:36:16;15.47;;;9.53;;
17345;SDS011;8790;53.590;10.002;2022-12-18T01:38:50;16.00;;;10.00;;
17345;SDS011;8790;53.590;10.002;2022-12-18T01:41:25;15.87;;;9.50;;
17345;SDS011;8790;53.590;10.002;2022-12-18T01:47:23;16.77;;;9.27;;
17345;SDS011;8790;53.590;10.002;2022-12-18T01:49:58;16.13;;;10.07;;
17345;SDS011;8790;53.590;10.002;2022-12-18T01:52:33;16.30;;;9.43;;
17345;SDS011;8790;53.590;10.002;2022-12-18T01:55:10;18.17;;;10.10;;
17345;SDS011;8790;53.590;10.002;2022-12-18T01:57:46;14.53;;;9.53;;
17345;SDS011;8790;53.590;10.002;2022-12-18T02:00:21;15.57;;;10.00;;
17345;SDS011;8790;53.590;10.002;2022-12-18T02:02:55;16.33;;;9.70;;
17345;SDS011;8790;53.590;10.002;2022-12-18T02:05:29;18.87;;;10.47;;
17345;SDS011;8790;53.590;10.002;2022-12-18T02:08:13;17.90;;;9.80;;
17345;SDS011;8790;53.590;10.002;2022-12-18T02:10:53;16.17;;;9.50;;
17345;SDS011;8790;53.590;10.002;2022-12-18T02:13:35;15.37;;;9.80;;
17345;SDS011;8790;53.590;10.002;2022-12-18T02:16:14;15.83;;;9.53;;
17345;SDS011;8790;53.590;10.002;2022-12-18T02:18:55;17.83;;;10.00;;
17345;SDS011;8790;53.590;10.002;2022-12-18T02:21:32;14.60;;;9.63;;
17345;SDS011;8790;53.590;10.002;2022-12-18T02:24:16;15.17;;;9.23;;
17345;SDS011;8790;53.590;10.002;2022-12-18T02:26:56;15.83;;;9.83;;
17345;SDS011;8790;53.590;10.002;2022-12-18T02:29:34;15.73;;;9.53;;
17345;SDS011;8790;53.590;10.002;2022-12-18T02:32:10;13.80;;;8.87;;
17345;SDS011;8790;53.590;10.002;2022-12-18T02:34:45;16.13;;;8.87;;
17345;SDS011;8790;53.590;10.002;2022-12-18T02:37:19;16.73;;;8.93;;
17345;SDS011;8790;53.590;10.002;2022-12-18T02:39:54;14.30;;;8.87;;
17345;SDS011;8790;53.590;10.002;2022-12-18T02:42:29;14.83;;;8.70;;
17345;SDS011;8790;53.590;10.002;2022-12-18T02:45:02;15.37;;;8.80;;
17345;SDS011;8790;53.590;10.002;2022-12-18T02:47:36;12.77;;;8.60;;
17345;SDS011;8790;53.590;10.002;2022-12-18T02:50:13;16.40;;;9.20;;
17345;SDS011;8790;53.590;10.002;2022-12-18T02:53:00;11.80;;;8.10;;
17345;SDS011;8790;53.590;10.002;2022-12-18T02:55:45;16.97;;;8.63;;
17345;SDS011;8790;53.590;10.002;2022-12-18T02:58:28;12.40;;;7.80;;
17345;SDS011;8790;53.590;10.002;2022-12-18T03:01:11;11.73;;;8.03;;
17345;SDS011;8790;53.590;10.002;2022-12-18T03:03:52;13.77;;;8.40;;
17345;SDS011;8790;53.590;10.002;2022-12-18T03:06:28;13.33;;;8.33;;
17345;SDS011;8790;53.590;10.002;2022-12-18T03:09:05;14.50;;;8.10;;
17345;SDS011;8790;53.590;10.002;2022-12-18T03:11:41;11.50;;;8.17;;
17345;SDS011;8790;53.590;10.002;2022-12-18T03:14:37;15.07;;;8.43;;
17345;SDS011;8790;53.590;10.002;2022-12-18T03:17:13;13.90;;;7.97;;
17345;SDS011;8790;53.590;10.002;2022-12-18T03:19:50;14.17;;;8.90;;
17345;SDS011;8790;53.590;10.002;2022-12-18T03:22:24;15.63;;;8.53;;
17345;SDS011;8790;53.590;10.002;2022-12-18T03:25:01;14.97;;;8.77;;
17345;SDS011;8790;53.590;10.002;2022-12-18T03:27:36;12.20;;;8.40;;
17345;SDS011;8790;53.590;10.002;2022-12-18T03:30:16;14.57;;;7.90;;
17345;SDS011;8790;53.590;10.002;2022-12-18T03:32:50;16.17;;;8.20;;
17345;SDS011;8790;53.590;10.002;2022-12-18T03:35:28;13.97;;;8.50;;
17345;SDS011;8790;53.590;10.002;2022-12-18T03:38:02;18.73;;;8.90;;
17345;SDS011;8790;53.590;10.002;2022-12-18T03:40:40;14.10;;;8.57;;
17345;SDS011;8790;53.590;10.002;2022-12-18T03:43:20;13.17;;;8.27;;
17345;SDS011;8790;53.590;10.002;2022-12-18T03:46:02;10.50;;;7.23;;
17345;SDS011;8790;53.590;10.002;2022-12-18T03:48:38;13.43;;;8.77;;
17345;SDS011;8790;53.590;10.002;2022-12-18T03:51:21;14.90;;;8.20;;
17345;SDS011;8790;53.590;10.002;2022-12-18T03:53:58;12.70;;;7.97;;
17345;SDS011;8790;53.590;10.002;2022-12-18T03:56:40;12.90;;;7.83;;
17345;SDS011;8790;53.590;10.002;2022-12-18T03:59:15;17.83;;;8.67;;
17345;SDS011;8790;53.590;10.002;2022-12-18T04:01:51;11.97;;;8.53;;
17345;SDS011;8790;53.590;10.002;2022-12-18T04:04:25;11.63;;;8.00;;
17345;SDS011;8790;53.590;10.002;2022-12-18T04:07:03;12.53;;;8.07;;
17345;SDS011;8790;53.590;10.002;2022-12-18T04:09:38;13.67;;;8.83;;
17345;SDS011;8790;53.590;10.002;2022-12-18T04:12:11;11.80;;;8.00;;
17345;SDS011;8790;53.590;10.002;2022-12-18T04:14:43;12.30;;;8.50;;
17345;SDS011;8790;53.590;10.002;2022-12-18T04:17:17;13.90;;;8.70;;
17345;SDS011;8790;53.590;10.002;2022-12-18T04:19:49;16.17;;;8.50;;
17345;SDS011;8790;53.590;10.002;2022-12-18T04:22:21;16.40;;;8.57;;
17345;SDS011;8790;53.590;10.002;2022-12-18T04:24:58;14.30;;;8.00;;
17345;SDS011;8790;53.590;10.002;2022-12-18T04:27:37;12.90;;;8.17;;
17345;SDS011;8790;53.590;10.002;2022-12-18T04:30:09;15.57;;;8.80;;
17345;SDS011;8790;53.590;10.002;2022-12-18T04:32:43;14.63;;;8.57;;
17345;SDS011;8790;53.590;10.002;2022-12-18T04:35:15;17.43;;;7.87;;
17345;SDS011;8790;53.590;10.002;2022-12-18T04:37:48;11.90;;;7.70;;
17345;SDS011;8790;53.590;10.002;2022-12-18T04:40:20;14.67;;;7.90;;
17345;SDS011;8790;53.590;10.002;2022-12-18T04:42:52;13.70;;;8.10;;
17345;SDS011;8790;53.590;10.002;2022-12-18T04:45:24;13.93;;;7.97;;
17345;SDS011;8790;53.590;10.002;2022-12-18T04:47:57;12.67;;;7.40;;
17345;SDS011;8790;53.590;10.002;2022-12-18T04:50:29;13.10;;;7.77;;
17345;SDS011;8790;53.590;10.002;2022-12-18T04:53:02;12.90;;;7.90;;
17345;SDS011;8790;53.590;10.002;2022-12-18T04:55:34;14.73;;;7.90;;
17345;SDS011;8790;53.590;10.002;2022-12-18T04:58:05;12.57;;;8.07;;
17345;SDS011;8790;53.590;10.002;2022-12-18T05:00:37;11.83;;;7.87;;
17345;SDS011;8790;53.590;10.002;2022-12-18T05:03:10;14.80;;;8.07;;
17345;SDS011;8790;53.590;10.002;2022-12-18T05:05:42;15.10;;;8.07;;
17345;SDS011;8790;53.590;10.002;2022-12-18T05:08:14;15.27;;;8.13;;
17345;SDS011;8790;53.590;10.002;2022-12-18T05:10:45;13.27;;;7.93;;
17345;SDS011;8790;53.590;10.002;2022-12-18T05:13:17;11.37;;;7.93;;
17345;SDS011;8790;53.590;10.002;2022-12-18T05:15:51;15.43;;;7.67;;
17345;SDS011;8790;53.590;10.002;2022-12-18T05:18:24;11.37;;;7.73;;
17345;SDS011;8790;53.590;10.002;2022-12-18T05:20:56;12.30;;;7.97;;
17345;SDS011;8790;53.590;10.002;2022-12-18T05:23:28;12.37;;;7.67;;
17345;SDS011;8790;53.590;10.002;2022-12-18T05:26:01;12.87;;;7.63;;
17345;SDS011;8790;53.590;10.002;2022-12-18T05:28:35;13.07;;;8.10;;
17345;SDS011;8790;53.590;10.002;2022-12-18T05:31:08;11.43;;;8.03;;
17345;SDS011;8790;53.590;10.002;2022-12-18T05:33:42;12.60;;;7.33;;
17345;SDS011;8790;53.590;10.002;2022-12-18T05:36:14;15.80;;;8.40;;
17345;SDS011;8790;53.590;10.002;2022-12-18T05:38:46;13.00;;;7.73;;
17345;SDS011;8790;53.590;10.002;2022-12-18T05:41:18;11.53;;;7.73;;
17345;SDS011;8790;53.590;10.002;2022-12-18T05:43:49;12.20;;;7.83;;
17345;SDS011;8790;53.590;10.002;2022-12-18T05:46:21;12.90;;;8.50;;
17345;SDS011;8790;53.590;10.002;2022-12-18T05:48:58;14.40;;;7.97;;
17345;SDS011;8790;53.590;10.002;2022-12-18T05:51:30;13.40;;;7.23;;
17345;SDS011;8790;53.590;10.002;2022-12-18T05:54:02;15.27;;;8.00;;
17345;SDS011;8790;53.590;10.002;2022-12-18T05:56:34;12.47;;;7.57;;
17345;SDS011;8790;53.590;10.002;2022-12-18T05:59:05;12.73;;;8.07;;
17345;SDS011;8790;53.590;10.002;2022-12-18T06:01:37;13.33;;;8.07;;
17345;SDS011;8790;53.590;10.002;2022-12-18T06:04:10;12.80;;;7.20;;
17345;SDS011;8790;53.590;10.002;2022-12-18T06:06:42;13.60;;;7.60;;
17345;SDS011;8790;53.590;10.002;2022-12-18T06:09:14;13.03;;;7.27;;
17345;SDS011;8790;53.590;10.002;2022-12-18T06:11:45;13.23;;;7.90;;
17345;SDS011;8790;53.590;10.002;2022-12-18T06:14:17;13.60;;;8.07;;
17345;SDS011;8790;53.590;10.002;2022-12-18T06:16:50;12.40;;;7.80;;
17345;SDS011;8790;53.590;10.002;2022-12-18T06:19:23;13.03;;;7.80;;
17345;SDS011;8790;53.590;10.002;2022-12-18T06:21:54;13.63;;;7.47;;
17345;SDS011;8790;53.590;10.002;2022-12-18T06:24:29;13.47;;;7.93;;
17345;SDS011;8790;53.590;10.002;2022-12-18T06:27:01;14.20;;;8.33;;
17345;SDS011;8790;53.590;10.002;2022-12-18T06:29:33;11.90;;;7.57;;
17345;SDS011;8790;53.590;10.002;2022-12-18T06:32:04;12.47;;;8.10;;
17345;SDS011;8790;53.590;10.002;2022-12-18T06:34:37;15.13;;;8.77;;
17345;SDS011;8790;53.590;10.002;2022-12-18T06:37:09;14.93;;;8.17;;
17345;SDS011;8790;53.590;10.002;2022-12-18T06:39:41;14.53;;;8.97;;
17345;SDS011;8790;53.590;10.002;2022-12-18T06:42:12;13.93;;;8.10;;
17345;SDS011;8790;53.590;10.002;2022-12-18T06:44:44;15.97;;;9.20;;
17345;SDS011;8790;53.590;10.002;2022-12-18T06:47:16;12.73;;;8.27;;
17345;SDS011;8790;53.590;10.002;2022-12-18T06:49:50;15.90;;;9.30;;
17345;SDS011;8790;53.590;10.002;2022-12-18T06:52:21;17.40;;;8.93;;
17345;SDS011;8790;53.590;10.002;2022-12-18T06:54:53;14.97;;;8.43;;
17345;SDS011;8790;53.590;10.002;2022-12-18T06:57:25;13.40;;;8.83;;
17345;SDS011;8790;53.590;10.002;2022-12-18T06:59:57;14.97;;;9.50;;
17345;SDS011;8790;53.590;10.002;2022-12-18T07:02:28;13.87;;;8.70;;
17345;SDS011;8790;53.590;10.002;2022-12-18T07:05:01;13.00;;;8.47;;
17345;SDS011;8790;53.590;10.002;2022-12-18T07:07:34;15.30;;;9.57;;
17345;SDS011;8790;53.590;10.002;2022-12-18T07:10:06;16.10;;;9.47;;
17345;SDS011;8790;53.590;10.002;2022-12-18T07:12:38;14.57;;;8.70;;
17345;SDS011;8790;53.590;10.002;2022-12-18T07:15:11;13.80;;;8.60;;
17345;SDS011;8790;53.590;10.002;2022-12-18T07:17:42;15.03;;;8.87;;
17345;SDS011;8790;53.590;10.002;2022-12-18T07:20:15;14.23;;;8.80;;
17345;SDS011;8790;53.590;10.002;2022-12-18T07:22:47;18.40;;;9.10;;
17345;SDS011;8790;53.590;10.002;2022-12-18T07:25:19;13.93;;;9.27;;
17345;SDS011;8790;53.590;10.002;2022-12-18T07:27:50;15.00;;;8.40;;
17345;SDS011;8790;53.590;10.002;2022-12-18T07:30:22;15.83;;;9.00;;
17345;SDS011;8790;53.590;10.002;2022-12-18T07:32:54;15.33;;;9.30;;
17345;SDS011;8790;53.590;10.002;2022-12-18T07:35:27;17.63;;;9.10;;
17345;SDS011;8790;53.590;10.002;2022-12-18T07:37:59;13.47;;;8.53;;
17345;SDS011;8790;53.590;10.002;2022-12-18T07:40:30;13.80;;;8.87;;
17345;SDS011;8790;53.590;10.002;2022-12-18T07:43:02;16.73;;;9.57;;
17345;SDS011;8790;53.590;10.002;2022-12-18T07:45:34;13.33;;;8.93;;
17345;SDS011;8790;53.590;10.002;2022-12-18T07:48:06;15.07;;;9.17;;
17345;SDS011;8790;53.590;10.002;2022-12-18T07:50:39;14.93;;;8.33;;
17345;SDS011;8790;53.590;10.002;2022-12-18T07:53:11;15.03;;;9.67;;
17345;SDS011;8790;53.590;10.002;2022-12-18T07:55:42;14.10;;;9.13;;
17345;SDS011;8790;53.590;10.002;2022-12-18T07:58:14;15.30;;;9.27;;
17345;SDS011;8790;53.590;10.002;2022-12-18T08:00:46;14.70;;;8.97;;
17345;SDS011;8790;53.590;10.002;2022-12-18T08:03:17;16.10;;;9.17;;
17345;SDS011;8790;53.590;10.002;2022-12-18T08:05:51;16.13;;;8.93;;
17345;SDS011;8790;53.590;10.002;2022-12-18T08:08:23;14.97;;;9.13;;
17345;SDS011;8790;53.590;10.002;2022-12-18T08:10:54;13.43;;;9.00;;
17345;SDS011;8790;53.590;10.002;2022-12-18T08:13:27;15.10;;;9.07;;
17345;SDS011;8790;53.590;10.002;2022-12-18T08:15:59;14.50;;;8.83;;
17345;SDS011;8790;53.590;10.002;2022-12-18T08:18:32;14.63;;;9.83;;
17345;SDS011;8790;53.590;10.002;2022-12-18T08:21:09;15.70;;;9.27;;
17345;SDS011;8790;53.590;10.002;2022-12-18T08:23:42;15.33;;;9.40;;
17345;SDS011;8790;53.590;10.002;2022-12-18T08:26:14;15.73;;;9.53;;
17345;SDS011;8790;53.590;10.002;2022-12-18T08:28:46;15.17;;;9.27;;
17345;SDS011;8790;53.590;10.002;2022-12-18T08:31:18;14.83;;;9.43;;
17345;SDS011;8790;53.590;10.002;2022-12-18T08:33:50;17.50;;;9.53;;
17345;SDS011;8790;53.590;10.002;2022-12-18T08:36:24;18.07;;;9.50;;
17345;SDS011;8790;53.590;10.002;2022-12-18T08:38:56;17.73;;;9.50;;
17345;SDS011;8790;53.590;10.002;2022-12-18T08:41:28;15.23;;;9.23;;
17345;SDS011;8790;53.590;10.002;2022-12-18T08:44:00;14.67;;;8.83;;
17345;SDS011;8790;53.590;10.002;2022-12-18T08:46:49;17.30;;;10.20;;
17345;SDS011;8790;53.590;10.002;2022-12-18T08:49:20;14.50;;;9.27;;
17345;SDS011;8790;53.590;10.002;2022-12-18T08:51:55;15.50;;;9.87;;
17345;SDS011;8790;53.590;10.002;2022-12-18T08:54:27;15.93;;;9.20;;
17345;SDS011;8790;53.590;10.002;2022-12-18T08:56:59;17.20;;;9.97;;
17345;SDS011;8790;53.590;10.002;2022-12-18T08:59:31;18.33;;;9.67;;
17345;SDS011;8790;53.590;10.002;2022-12-18T09:02:03;15.97;;;9.47;;
17345;SDS011;8790;53.590;10.002;2022-12-18T09:04:34;17.53;;;9.60;;
17345;SDS011;8790;53.590;10.002;2022-12-18T09:07:07;15.90;;;9.33;;
17345;SDS011;8790;53.590;10.002;2022-12-18T09:09:39;13.73;;;9.13;;
17345;SDS011;8790;53.590;10.002;2022-12-18T09:12:11;14.63;;;8.83;;
17345;SDS011;8790;53.590;10.002;2022-12-18T09:14:43;16.83;;;9.87;;
17345;SDS011;8790;53.590;10.002;2022-12-18T09:17:14;14.63;;;9.20;;
17345;SDS011;8790;53.590;10.002;2022-12-18T09:19:46;15.83;;;9.83;;
17345;SDS011;8790;53.590;10.002;2022-12-18T09:22:19;16.00;;;9.53;;
17345;SDS011;8790;53.590;10.002;2022-12-18T09:24:51;16.30;;;9.77;;
17345;SDS011;8790;53.590;10.002;2022-12-18T09:27:24;18.10;;;10.23;;
17345;SDS011;8790;53.590;10.002;2022-12-18T09:29:55;14.43;;;9.33;;
17345;SDS011;8790;53.590;10.002;2022-12-18T09:32:27;16.00;;;9.30;;
17345;SDS011;8790;53.590;10.002;2022-12-18T09:34:59;15.00;;;9.33;;
17345;SDS011;8790;53.590;10.002;2022-12-18T09:37:32;17.93;;;9.97;;
17345;SDS011;8790;53.590;10.002;2022-12-18T09:40:05;16.77;;;10.10;;
17345;SDS011;8790;53.590;10.002;2022-12-18T09:42:37;21.23;;;10.50;;
17345;SDS011;8790;53.590;10.002;2022-12-18T09:45:11;19.07;;;10.37;;
17345;SDS011;8790;53.590;10.002;2022-12-18T09:47:45;16.83;;;10.00;;
17345;SDS011;8790;53.590;10.002;2022-12-18T09:50:22;18.90;;;10.83;;
17345;SDS011;8790;53.590;10.002;2022-12-18T09:53:02;16.10;;;9.60;;
17345;SDS011;8790;53.590;10.002;2022-12-18T09:55:37;17.50;;;9.43;;
17345;SDS011;8790;53.590;10.002;2022-12-18T09:58:13;13.93;;;9.30;;
17345;SDS011;8790;53.590;10.002;2022-12-18T10:00:51;20.65;;;13.63;;
17345;SDS011;8790;53.590;10.002;2022-12-18T10:03:23;15.93;;;10.80;;
17345;SDS011;8790;53.590;10.002;2022-12-18T10:05:58;17.07;;;10.00;;
17345;SDS011;8790;53.590;10.002;2022-12-18T10:08:37;14.00;;;9.37;;
17345;SDS011;8790;53.590;10.002;2022-12-18T10:11:27;14.53;;;9.37;;
17345;SDS011;8790;53.590;10.002;2022-12-18T10:14:07;14.77;;;9.47;;
17345;SDS011;8790;53.590;10.002;2022-12-18T10:16:47;17.43;;;9.73;;
17345;SDS011;8790;53.590;10.002;2022-12-18T10:19:32;15.97;;;9.47;;
17345;SDS011;8790;53.590;10.002;2022-12-18T10:22:11;16.30;;;10.00;;
17345;SDS011;8790;53.590;10.002;2022-12-18T10:24:52;16.30;;;9.90;;
17345;SDS011;8790;53.590;10.002;2022-12-18T10:27:31;16.80;;;9.67;;
17345;SDS011;8790;53.590;10.002;2022-12-18T10:30:04;15.50;;;10.30;;
17345;SDS011;8790;53.590;10.002;2022-12-18T10:32:44;15.80;;;9.43;;
17345;SDS011;8790;53.590;10.002;2022-12-18T10:35:17;17.27;;;9.40;;
17345;SDS011;8790;53.590;10.002;2022-12-18T10:38:00;16.27;;;9.77;;
17345;SDS011;8790;53.590;10.002;2022-12-18T10:40:47;15.63;;;9.67;;
17345;SDS011;8790;53.590;10.002;2022-12-18T10:43:21;15.90;;;9.40;;
17345;SDS011;8790;53.590;10.002;2022-12-18T10:45:59;15.77;;;9.23;;
17345;SDS011;8790;53.590;10.002;2022-12-18T10:48:34;15.43;;;9.60;;
17345;SDS011;8790;53.590;10.002;2022-12-18T10:51:07;16.50;;;10.23;;
17345;SDS011;8790;53.590;10.002;2022-12-18T10:53:40;14.27;;;9.37;;
17345;SDS011;8790;53.590;10.002;2022-12-18T10:56:18;16.97;;;9.23;;
17345;SDS011;8790;53.590;10.002;2022-12-18T10:58:55;15.63;;;9.73;;
17345;SDS011;8790;53.590;10.002;2022-12-18T11:01:30;14.57;;;9.07;;
17345;SDS011;8790;53.590;10.002;2022-12-18T11:04:17;15.43;;;9.50;;
17345;SDS011;8790;53.590;10.002;2022-12-18T11:06:55;17.90;;;9.67;;
17345;SDS011;8790;53.590;10.002;2022-12-18T11:09:29;17.00;;;9.80;;
17345;SDS011;8790;53.590;10.002;2022-12-18T11:12:04;14.43;;;9.20;;
17345;SDS011;8790;53.590;10.002;2022-12-18T11:14:47;14.40;;;8.93;;
17345;SDS011;8790;53.590;10.002;2022-12-18T11:17:21;16.10;;;10.13;;
17345;SDS011;8790;53.590;10.002;2022-12-18T11:19:56;13.93;;;9.20;;
17345;SDS011;8790;53.590;10.002;2022-12-18T11:22:29;16.43;;;10.37;;
17345;SDS011;8790;53.590;10.002;2022-12-18T11:25:03;15.63;;;9.97;;
17345;SDS011;8790;53.590;10.002;2022-12-18T11:27:38;16.03;;;9.93;;
17345;SDS011;8790;53.590;10.002;2022-12-18T11:30:21;19.73;;;10.23;;
17345;SDS011;8790;53.590;10.002;2022-12-18T11:33:01;15.63;;;9.80;;
17345;SDS011;8790;53.590;10.002;2022-12-18T11:35:38;15.53;;;10.33;;
17345;SDS011;8790;53.590;10.002;2022-12-18T11:38:17;15.13;;;9.47;;
17345;SDS011;8790;53.590;10.002;2022-12-18T11:40:54;16.77;;;9.87;;
17345;SDS011;8790;53.590;10.002;2022-12-18T11:43:31;16.20;;;9.97;;
17345;SDS011;8790;53.590;10.002;2022-12-18T11:46:10;16.33;;;9.70;;
17345;SDS011;8790;53.590;10.002;2022-12-18T11:48:45;18.37;;;10.20;;
17345;SDS011;8790;53.590;10.002;2022-12-18T11:51:22;18.70;;;9.93;;
17345;SDS011;8790;53.590;10.002;2022-12-18T11:53:59;15.60;;;9.80;;
17345;SDS011;8790;53.590;10.002;2022-12-18T11:56:43;17.57;;;10.13;;
17345;SDS011;8790;53.590;10.002;2022-12-18T11:59:23;17.67;;;10.20;;
17345;SDS011;8790;53.590;10.002;2022-12-18T12:02:03;16.87;;;9.93;;
17345;SDS011;8790;53.590;10.002;2022-12-18T12:04:58;15.97;;;10.40;;
17345;SDS011;8790;53.590;10.002;2022-12-18T12:07:53;19.13;;;10.23;;
17345;SDS011;8790;53.590;10.002;2022-12-18T12:10:33;17.30;;;10.43;;
17345;SDS011;8790;53.590;10.002;2022-12-18T12:13:16;16.73;;;10.43;;
17345;SDS011;8790;53.590;10.002;2022-12-18T12:16:29;17.93;;;10.23;;
17345;SDS011;8790;53.590;10.002;2022-12-18T12:19:35;21.33;;;11.03;;
17345;SDS011;8790;53.590;10.002;2022-12-18T12:22:40;17.10;;;10.77;;
17345;SDS011;8790;53.590;10.002;2022-12-18T12:25:26;18.53;;;9.87;;
17345;SDS011;8790;53.590;10.002;2022-12-18T12:28:35;18.33;;;10.73;;
17345;SDS011;8790;53.590;10.002;2022-12-18T12:31:31;16.57;;;10.07;;
17345;SDS011;8790;53.590;10.002;2022-12-18T12:34:15;19.20;;;10.50;;
17345;SDS011;8790;53.590;10.002;2022-12-18T12:36:52;17.10;;;9.93;;
17345;SDS011;8790;53.590;10.002;2022-12-18T12:39:43;18.80;;;10.10;;
17345;SDS011;8790;53.590;10.002;2022-12-18T12:42:18;17.20;;;10.43;;
17345;SDS011;8790;53.590;10.002;2022-12-18T12:45:14;17.57;;;10.53;;
17345;SDS011;8790;53.590;10.002;2022-12-18T12:47:50;16.43;;;10.40;;
17345;SDS011;8790;53.590;10.002;2022-12-18T12:50:23;18.77;;;10.33;;
17345;SDS011;8790;53.590;10.002;2022-12-18T12:52:56;21.77;;;10.57;;
17345;SDS011;8790;53.590;10.002;2022-12-18T12:55:28;18.30;;;10.73;;
17345;SDS011;8790;53.590;10.002;2022-12-18T12:58:02;21.00;;;10.57;;
17345;SDS011;8790;53.590;10.002;2022-12-18T13:00:39;18.57;;;10.40;;
17345;SDS011;8790;53.590;10.002;2022-12-18T13:03:18;20.53;;;11.50;;
17345;SDS011;8790;53.590;10.002;2022-12-18T13:05:58;17.83;;;10.40;;
17345;SDS011;8790;53.590;10.002;2022-12-18T13:08:50;18.07;;;10.00;;
17345;SDS011;8790;53.590;10.002;2022-12-18T13:11:31;20.73;;;12.10;;
17345;SDS011;8790;53.590;10.002;2022-12-18T13:14:26;18.33;;;10.80;;
17345;SDS011;8790;53.590;10.002;2022-12-18T13:20:09;19.40;;;10.53;;
17345;SDS011;8790;53.590;10.002;2022-12-18T13:22:44;19.23;;;10.40;;
17345;SDS011;8790;53.590;10.002;2022-12-18T13:25:28;20.67;;;11.03;;
17345;SDS011;8790;53.590;10.002;2022-12-18T13:28:06;19.10;;;11.10;;
17345;SDS011;8790;53.590;10.002;2022-12-18T13:30:47;23.83;;;11.13;;
17345;SDS011;8790;53.590;10.002;2022-12-18T13:36:28;19.10;;;10.90;;
17345;SDS011;8790;53.590;10.002;2022-12-18T13:45:37;23.10;;;11.63;;
17345;SDS011;8790;53.590;10.002;2022-12-18T13:48:18;20.40;;;10.73;;
17345;SDS011;8790;53.590;10.002;2022-12-18T13:50:55;21.77;;;11.33;;
17345;SDS011;8790;53.590;10.002;2022-12-18T13:53:56;19.87;;;10.90;;
17345;SDS011;8790;53.590;10.002;2022-12-18T13:56:31;20.80;;;10.70;;
17345;SDS011;8790;53.590;10.002;2022-12-18T14:01:53;19.17;;;10.43;;
17345;SDS011;8790;53.590;10.002;2022-12-18T14:04:26;18.73;;;10.43;;
17345;SDS011;8790;53.590;10.002;2022-12-18T14:07:02;22.07;;;11.07;;
17345;SDS011;8790;53.590;10.002;2022-12-18T14:09:39;20.77;;;11.20;;
17345;SDS011;8790;53.590;10.002;2022-12-18T14:12:17;19.87;;;10.53;;
17345;SDS011;8790;53.590;10.002;2022-12-18T14:15:11;18.07;;;10.27;;
17345;SDS011;8790;53.590;10.002;2022-12-18T14:17:54;22.17;;;10.77;;
17345;SDS011;8790;53.590;10.002;2022-12-18T14:20:29;20.63;;;10.40;;
17345;SDS011;8790;53.590;10.002;2022-12-18T14:23:03;21.83;;;10.87;;
17345;SDS011;8790;53.590;10.002;2022-12-18T14:25:36;22.60;;;10.87;;
17345;SDS011;8790;53.590;10.002;2022-12-18T14:28:08;21.00;;;10.70;;
17345;SDS011;8790;53.590;10.002;2022-12-18T14:30:45;20.37;;;9.77;;
17345;SDS011;8790;53.590;10.002;2022-12-18T14:33:17;25.30;;;11.70;;
17345;SDS011;8790;53.590;10.002;2022-12-18T14:35:54;23.37;;;11.43;;
17345;SDS011;8790;53.590;10.002;2022-12-18T14:38:31;21.97;;;10.93;;
17345;SDS011;8790;53.590;10.002;2022-12-18T14:41:06;22.47;;;11.50;;
17345;SDS011;8790;53.590;10.002;2022-12-18T14:43:42;22.87;;;11.80;;
17345;SDS011;8790;53.590;10.002;2022-12-18T14:46:25;23.60;;;11.47;;
17345;SDS011;8790;53.590;10.002;2022-12-18T14:49:04;22.07;;;11.07;;
17345;SDS011;8790;53.590;10.002;2022-12-18T14:51:49;24.60;;;11.67;;
17345;SDS011;8790;53.590;10.002;2022-12-18T14:54:23;24.87;;;11.50;;
17345;SDS011;8790;53.590;10.002;2022-12-18T14:56:59;24.20;;;12.30;;
17345;SDS011;8790;53.590;10.002;2022-12-18T14:59:32;22.63;;;12.03;;
17345;SDS011;8790;53.590;10.002;2022-12-18T15:02:04;24.57;;;12.67;;
17345;SDS011;8790;53.590;10.002;2022-12-18T15:04:47;30.80;;;18.07;;
17345;SDS011;8790;53.590;10.002;2022-12-18T15:07:20;39.93;;;24.80;;
17345;SDS011;8790;53.590;10.002;2022-12-18T15:10:03;25.17;;;13.20;;
17345;SDS011;8790;53.590;10.002;2022-12-18T15:12:43;24.47;;;12.03;;
17345;SDS011;8790;53.590;10.002;2022-12-18T15:18:23;25.30;;;12.10;;
17345;SDS011;8790;53.590;10.002;2022-12-18T15:21:07;23.80;;;12.10;;
17345;SDS011;8790;53.590;10.002;2022-12-18T15:23:45;25.30;;;12.03;;
17345;SDS011;8790;53.590;10.002;2022-12-18T15:26:19;22.87;;;11.43;;
17345;SDS011;8790;53.590;10.002;2022-12-18T15:28:54;24.83;;;12.63;;
17345;SDS011;8790;53.590;10.002;2022-12-18T15:31:29;22.13;;;11.27;;
17345;SDS011;8790;53.590;10.002;2022-12-18T15:34:11;27.37;;;13.23;;
17345;SDS011;8790;53.590;10.002;2022-12-18T15:36:45;23.33;;;11.90;;
17345;SDS011;8790;53.590;10.002;2022-12-18T15:39:17;23.93;;;11.57;;
17345;SDS011;8790;53.590;10.002;2022-12-18T15:41:48;27.73;;;13.20;;
17345;SDS011;8790;53.590;10.002;2022-12-18T15:44:39;26.13;;;11.90;;